createdAt,value
2022-07-29T00:00:06.951Z,98204.98
2022-07-29T00:02:41.540Z,98206.73
2022-07-29T00:05:14.662Z,98210.14
2022-07-29T00:07:47.355Z,98216.95
2022-07-29T00:10:21.523Z,98221.39
2022-07-29T00:12:54.078Z,98225.86
2022-07-29T00:15:27.110Z,98231.66
2022-07-29T00:18:03.668Z,98238.96
2022-07-29T00:20:36.929Z,98246.66
2022-07-29T00:23:14.044Z,98251.17
2022-07-29T00:25:50.237Z,98252.92
2022-07-29T00:28:24.542Z,98258.13
2022-07-29T00:30:58.960Z,98258.80
2022-07-29T00:33:32.164Z,98246.25
2022-07-29T00:36:03.717Z,98238.91
2022-07-29T00:38:34.440Z,98235.64
2022-07-29T00:41:05.107Z,98228.60
2022-07-29T00:43:35.648Z,98236.64
2022-07-29T00:46:06.218Z,98233.04
2022-07-29T00:48:37.312Z,98226.21
2022-07-29T00:51:11.808Z,98223.14
2022-07-29T00:53:42.249Z,98220.63
2022-07-29T00:56:12.887Z,98215.65
2022-07-29T00:58:43.470Z,98214.88
2022-07-29T01:01:13.988Z,98207.98
2022-07-29T01:03:44.683Z,98200.48
2022-07-29T01:06:16.012Z,98199.98
2022-07-29T01:08:47.997Z,98201.16
2022-07-29T01:11:19.859Z,98197.58
2022-07-29T01:13:50.886Z,98191.67
2022-07-29T01:16:26.982Z,98188.35
2022-07-29T01:19:01.302Z,98186.53
2022-07-29T01:21:54.083Z,98180.66
2022-07-29T01:24:39.693Z,98170.19
2022-07-29T01:27:23.781Z,98163.61
2022-07-29T01:29:59.712Z,98158.09
2022-07-29T01:32:33.917Z,98160.48
2022-07-29T01:35:09.085Z,98155.95
2022-07-29T01:37:41.986Z,98157.34
2022-07-29T01:40:17.469Z,98156.75
2022-07-29T01:42:52.873Z,98154.50
2022-07-29T01:45:29.857Z,98159.13
2022-07-29T01:48:06.977Z,98153.76
2022-07-29T01:50:51.758Z,98161.09
2022-07-29T01:53:29.077Z,98159.76
2022-07-29T01:56:14.060Z,98158.90
2022-07-29T01:58:49.356Z,98160.19
2022-07-29T02:01:32.183Z,98157.88
2022-07-29T02:04:08.520Z,98162.27
2022-07-29T02:06:47.788Z,98156.27
2022-07-29T02:09:25.695Z,98159.30
2022-07-29T02:12:02.953Z,98150.25
2022-07-29T02:14:42.102Z,98152.48
2022-07-29T02:17:20.547Z,98151.52
2022-07-29T02:19:55.868Z,98152.64
2022-07-29T02:22:32.401Z,98158.08
2022-07-29T02:25:13.758Z,98156.47
2022-07-29T02:35:01.430Z,98152.93
2022-07-29T02:37:37.460Z,98152.44
2022-07-29T02:40:19.825Z,98153.08
2022-07-29T02:42:56.388Z,98154.52
2022-07-29T02:48:01.549Z,98152.06
2022-07-29T02:50:35.568Z,98152.16
2022-07-29T02:53:10.695Z,98161.24
2022-07-29T02:55:46.751Z,98159.11
2022-07-29T02:58:27.532Z,98150.29
2022-07-29T03:00:59.618Z,98141.65
2022-07-29T03:03:32.960Z,98142.83
2022-07-29T03:06:05.142Z,98142.90
2022-07-29T03:08:36.196Z,98142.89
2022-07-29T03:11:07.549Z,98143.55
2022-07-29T03:13:39.018Z,98145.06
2022-07-29T03:16:15.637Z,98146.33
2022-07-29T03:18:49.147Z,98143.59
2022-07-29T03:21:23.465Z,98137.30
2022-07-29T03:24:10.585Z,98133.16
2022-07-29T03:27:14.069Z,98127.02
2022-07-29T03:29:50.047Z,98122.05
2022-07-29T03:32:23.879Z,98127.60
2022-07-29T03:34:56.162Z,98133.86
2022-07-29T03:37:26.805Z,98133.09
2022-07-29T03:39:59.312Z,98134.44
2022-07-29T03:42:34.347Z,98128.06
2022-07-29T03:45:07.676Z,98127.02
2022-07-29T03:47:50.093Z,98124.03
2022-07-29T03:50:22.947Z,98121.08
2022-07-29T03:52:53.309Z,98119.73
2022-07-29T03:55:24.025Z,98117.98
2022-07-29T03:57:55.773Z,98118.55
2022-07-29T04:00:27.039Z,98114.93
2022-07-29T04:02:57.635Z,98114.10
2022-07-29T04:05:28.146Z,98108.62
2022-07-29T04:07:58.569Z,98114.05
2022-07-29T04:10:31.750Z,98114.61
2022-07-29T04:13:02.986Z,98115.58
2022-07-29T04:15:33.470Z,98117.24
2022-07-29T04:18:04.140Z,98124.66
2022-07-29T04:20:34.485Z,98122.54
2022-07-29T04:23:05.349Z,98123.86
2022-07-29T04:25:38.425Z,98120.63
2022-07-29T04:28:09.212Z,98119.30
2022-07-29T04:30:40.369Z,98120.29
2022-07-29T04:33:11.212Z,98121.85
2022-07-29T04:35:49.904Z,98126.50
2022-07-29T04:38:23.085Z,98129.84
2022-07-29T04:40:53.444Z,98134.58
2022-07-29T04:43:24.905Z,98130.84
2022-07-29T04:45:55.738Z,98133.10
2022-07-29T04:48:28.696Z,98134.66
2022-07-29T04:50:59.510Z,98135.88
2022-07-29T04:53:29.864Z,98131.40
2022-07-29T04:56:00.233Z,98130.70
2022-07-29T04:58:31.177Z,98133.58
2022-07-29T05:01:01.701Z,98138.84
2022-07-29T05:03:32.136Z,98135.27
2022-07-29T05:06:02.594Z,98130.22
2022-07-29T05:08:32.939Z,98134.72
2022-07-29T05:11:12.057Z,98133.56
2022-07-29T05:13:45.906Z,98133.30
2022-07-29T05:16:17.562Z,98132.98
2022-07-29T05:18:48.009Z,98139.11
2022-07-29T05:21:18.638Z,98139.47
2022-07-29T05:23:48.994Z,98138.06
2022-07-29T05:26:19.328Z,98138.16
2022-07-29T05:28:49.762Z,98141.46
2022-07-29T05:31:20.431Z,98140.75
2022-07-29T05:33:50.895Z,98142.16
2022-07-29T05:36:21.221Z,98144.23
2022-07-29T05:38:53.102Z,98147.19
2022-07-29T05:41:23.540Z,98149.10
2022-07-29T05:43:53.828Z,98147.84
2022-07-29T05:46:24.540Z,98149.17
2022-07-29T05:48:55.055Z,98147.85
2022-07-29T05:51:25.570Z,98146.95
2022-07-29T05:53:55.924Z,98148.92
2022-07-29T05:56:26.339Z,98143.75
2022-07-29T05:58:56.648Z,98146.86
2022-07-29T06:01:27.143Z,98150.33
2022-07-29T06:03:57.534Z,98149.09
2022-07-29T06:06:27.974Z,98150.73
2022-07-29T06:08:58.578Z,98148.64
2022-07-29T06:11:29.023Z,98149.27
2022-07-29T06:13:59.441Z,98147.61
2022-07-29T06:16:30.389Z,98145.84
2022-07-29T06:19:01.043Z,98145.38
2022-07-29T06:21:31.472Z,98147.41
2022-07-29T06:24:01.837Z,98149.01
2022-07-29T06:26:35.296Z,98146.96
2022-07-29T06:29:10.131Z,98148.96
2022-07-29T06:31:40.939Z,98145.02
2022-07-29T06:34:11.887Z,98152.14
2022-07-29T06:36:44.685Z,98150.72
2022-07-29T06:39:17.231Z,98155.81
2022-07-29T06:41:51.495Z,98156.59
2022-07-29T06:44:22.261Z,98158.42
2022-07-29T06:46:54.215Z,98160.59
2022-07-29T06:49:27.106Z,98159.85
2022-07-29T06:51:58.324Z,98159.17
2022-07-29T06:54:28.818Z,98161.29
2022-07-29T06:57:00.095Z,98168.10
2022-07-29T06:59:35.398Z,98165.32
2022-07-29T07:02:06.563Z,98167.71
2022-07-29T07:04:37.057Z,98177.09
2022-07-29T07:07:07.498Z,98180.98
2022-07-29T07:09:39.929Z,98182.75
2022-07-29T07:12:11.932Z,98184.51
2022-07-29T07:14:44.051Z,98180.05
2022-07-29T07:17:14.422Z,98184.42
2022-07-29T07:19:46.174Z,98186.95
2022-07-29T07:22:16.609Z,98190.65
2022-07-29T07:24:47.250Z,98191.20
2022-07-29T07:27:17.799Z,98194.92
2022-07-29T07:29:48.956Z,98194.95
2022-07-29T07:32:19.638Z,98193.08
2022-07-29T07:34:50.831Z,98196.92
2022-07-29T07:37:22.979Z,98200.29
2022-07-29T07:39:52.512Z,98198.29
2022-07-29T07:42:23.165Z,98192.25
2022-07-29T07:45:12.529Z,98184.95
2022-07-29T07:47:45.141Z,98186.41
2022-07-29T07:50:19.071Z,98187.30
2022-07-29T07:52:55.928Z,98183.63
2022-07-29T07:55:27.427Z,98187.23
2022-07-29T07:57:59.070Z,98188.33
2022-07-29T08:00:30.105Z,98189.04
2022-07-29T08:03:02.238Z,98187.80
2022-07-29T08:05:33.469Z,98189.19
2022-07-29T08:08:05.391Z,98186.13
2022-07-29T08:11:03.137Z,98187.23
2022-07-29T08:13:36.667Z,98184.04
2022-07-29T08:16:14.130Z,98182.55
2022-07-29T08:18:48.297Z,98178.42
2022-07-29T08:21:19.284Z,98179.16
2022-07-29T08:24:00.772Z,98184.78
2022-07-29T08:26:33.694Z,98182.20
2022-07-29T08:29:07.664Z,98185.30
2022-07-29T08:31:38.340Z,98185.40
2022-07-29T08:34:13.772Z,98189.34
2022-07-29T08:42:42.645Z,98186.65
2022-07-29T08:45:14.725Z,98192.39
2022-07-29T08:47:49.035Z,98190.00
2022-07-29T08:50:23.709Z,98191.83
2022-07-29T08:53:04.436Z,98192.09
2022-07-29T08:55:38.795Z,98191.42
2022-07-29T08:58:11.802Z,98194.08
2022-07-29T09:00:51.071Z,98193.05
2022-07-29T09:03:25.550Z,98194.20
2022-07-29T09:05:57.398Z,98192.12
2022-07-29T09:08:27.045Z,98194.59
2022-07-29T09:10:58.537Z,98194.27
2022-07-29T09:13:30.932Z,98197.27
2022-07-29T09:16:08.598Z,98195.50
2022-07-29T09:18:41.763Z,98193.98
2022-07-29T09:21:31.774Z,98196.00
2022-07-29T09:24:09.658Z,98196.48
2022-07-29T09:26:46.382Z,98194.57
2022-07-29T09:29:18.804Z,98192.42
2022-07-29T09:31:52.300Z,98188.27
2022-07-29T09:34:32.104Z,98185.11
2022-07-29T09:37:06.898Z,98185.48
2022-07-29T09:39:45.233Z,98186.42
2022-07-29T09:42:17.578Z,98186.29
2022-07-29T09:44:54.159Z,98183.60
2022-07-29T09:47:48.064Z,98183.41
2022-07-29T09:50:24.820Z,98179.67
2022-07-29T09:52:56.598Z,98184.41
2022-07-29T09:55:30.580Z,98180.96
2022-07-29T09:58:22.515Z,98183.28
2022-07-29T10:00:55.961Z,98185.91
2022-07-29T10:03:30.610Z,98177.97
2022-07-29T10:06:17.365Z,98167.61
2022-07-29T10:08:48.715Z,98170.56
2022-07-29T10:11:21.047Z,98173.09
2022-07-29T10:13:53.240Z,98174.49
2022-07-29T10:16:34.042Z,98178.61
2022-07-29T10:19:05.992Z,98177.98
2022-07-29T10:21:46.148Z,98180.15
2022-07-29T10:24:22.906Z,98178.14
2022-07-29T10:26:54.887Z,98173.83
2022-07-29T10:29:26.598Z,98171.59
2022-07-29T10:32:11.470Z,98172.00
2022-07-29T10:35:09.395Z,98169.55
2022-07-29T10:38:01.581Z,98174.59
2022-07-29T10:41:06.773Z,98172.52
2022-07-29T10:43:45.170Z,98172.13
2022-07-29T10:46:19.590Z,98168.98
2022-07-29T10:49:11.220Z,98163.74
2022-07-29T10:52:05.938Z,98163.07
2022-07-29T10:54:51.293Z,98161.19
2022-07-29T10:57:54.080Z,98159.06
2022-07-29T11:00:36.272Z,98160.41
2022-07-29T11:03:10.462Z,98157.30
2022-07-29T11:06:26.345Z,98156.77
2022-07-29T11:09:25.862Z,98156.88
2022-07-29T11:12:49.642Z,98154.02
2022-07-29T11:15:32.206Z,98151.77
2022-07-29T11:18:15.228Z,98146.64
2022-07-29T11:20:51.045Z,98145.94
2022-07-29T11:23:34.033Z,98146.77
2022-07-29T11:26:23.763Z,98146.76
2022-07-29T11:28:59.616Z,98145.25
2022-07-29T11:36:28.002Z,98147.36
2022-07-29T11:39:36.399Z,98141.85
2022-07-29T11:42:44.582Z,98141.20
2022-07-29T11:45:42.759Z,98144.16
2022-07-29T11:48:29.784Z,98147.39
2022-07-29T11:51:05.709Z,98143.41
2022-07-29T11:53:47.222Z,98136.47
2022-07-29T11:56:25.842Z,98134.14
2022-07-29T11:59:08.379Z,98132.94
2022-07-29T12:01:41.104Z,98138.95
2022-07-29T12:04:13.030Z,98126.91
2022-07-29T12:06:48.710Z,98118.04
2022-07-29T12:09:21.275Z,98120.17
2022-07-29T12:12:03.121Z,98120.91
2022-07-29T12:14:37.404Z,98115.73
2022-07-29T12:17:10.678Z,98107.39
2022-07-29T12:19:47.576Z,98110.02
2022-07-29T12:22:30.598Z,98104.48
2022-07-29T12:25:36.466Z,98103.48
2022-07-29T12:28:14.215Z,98105.40
2022-07-29T12:30:51.742Z,98101.64
2022-07-29T12:33:30.710Z,98101.63
2022-07-29T12:36:07.166Z,98095.95
2022-07-29T12:38:42.441Z,98095.90
2022-07-29T12:41:14.135Z,98088.55
2022-07-29T12:43:57.124Z,98090.02
2022-07-29T12:46:28.249Z,98090.10
2022-07-29T12:48:59.937Z,98091.25
2022-07-29T12:51:34.289Z,98089.95
2022-07-29T12:54:12.301Z,98082.02
2022-07-29T12:56:45.330Z,98080.22
2022-07-29T12:59:18.780Z,98069.44
2022-07-29T13:01:51.975Z,98066.42
2022-07-29T13:04:32.110Z,98063.76
2022-07-29T13:07:10.606Z,98067.71
2022-07-29T13:09:46.726Z,98064.95
2022-07-29T13:12:21.423Z,98066.50
2022-07-29T13:14:52.849Z,98072.95
2022-07-29T13:17:32.973Z,98074.58
2022-07-29T13:20:10.377Z,98080.39
2022-07-29T13:22:47.023Z,98077.73
2022-07-29T13:25:28.271Z,98071.23
2022-07-29T13:28:01.768Z,98071.90
2022-07-29T13:30:35.290Z,98072.78
2022-07-29T13:33:08.091Z,98077.83
2022-07-29T13:35:42.981Z,98068.73
2022-07-29T13:38:15.691Z,98062.66
2022-07-29T13:40:48.241Z,98057.91
2022-07-29T13:43:20.475Z,98063.02
2022-07-29T13:45:55.383Z,98066.36
2022-07-29T13:48:27.915Z,98067.41
2022-07-29T13:51:01.295Z,98066.70
2022-07-29T13:53:34.105Z,98063.75
2022-07-29T13:56:12.035Z,98068.02
2022-07-29T13:58:46.600Z,98073.73
2022-07-29T14:01:19.871Z,98080.52
2022-07-29T14:03:54.679Z,98086.38
2022-07-29T14:06:29.978Z,98080.95
2022-07-29T14:09:07.510Z,98089.34
2022-07-29T14:11:41.386Z,98089.52
2022-07-29T14:14:13.982Z,98094.59
2022-07-29T14:16:47.862Z,98095.83
2022-07-29T14:19:25.246Z,98095.99
2022-07-29T14:21:58.915Z,98101.63
2022-07-29T14:24:33.503Z,98103.02
2022-07-29T14:27:15.939Z,98112.08
2022-07-29T14:29:49.406Z,98114.30
2022-07-29T14:32:22.650Z,98112.27
2022-07-29T14:35:03.806Z,98106.02
2022-07-29T14:37:39.837Z,98105.60
2022-07-29T14:43:09.465Z,98096.94
2022-07-29T14:45:46.492Z,98097.94
2022-07-29T14:48:20.470Z,98098.02
2022-07-29T14:50:52.022Z,98091.24
2022-07-29T14:53:25.514Z,98087.45
2022-07-29T14:56:10.357Z,98083.13
2022-07-29T14:58:52.135Z,98078.66
2022-07-29T15:01:31.054Z,98073.30
2022-07-29T15:04:04.195Z,98070.84
2022-07-29T15:06:39.624Z,98068.38
2022-07-29T15:09:13.115Z,98069.29
2022-07-29T15:11:46.336Z,98069.23
2022-07-29T15:14:19.052Z,98069.16
2022-07-29T15:16:55.829Z,98063.67
2022-07-29T15:19:29.922Z,98064.90
2022-07-29T15:22:07.909Z,98067.48
2022-07-29T15:24:55.141Z,98072.14
2022-07-29T15:27:39.655Z,98070.34
2022-07-29T15:30:33.534Z,98068.89
2022-07-29T15:33:09.924Z,98072.57
2022-07-29T15:35:44.731Z,98077.66
2022-07-29T15:38:28.704Z,98082.70
2022-07-29T15:41:05.268Z,98078.90
2022-07-29T15:43:40.815Z,98076.86
2022-07-29T15:46:34.696Z,98078.34
2022-07-29T15:49:10.355Z,98085.93
2022-07-29T15:51:45.170Z,98092.49
2022-07-29T15:54:18.776Z,98090.88
2022-07-29T15:56:53.971Z,98096.14
2022-07-29T15:59:27.516Z,98097.46
2022-07-29T16:02:06.108Z,98102.10
2022-07-29T16:04:40.553Z,98103.94
2022-07-29T16:07:15.561Z,98107.48
2022-07-29T16:09:53.364Z,98108.12
2022-07-29T16:12:27.932Z,98109.79
2022-07-29T16:22:16.938Z,98094.62
2022-07-29T16:24:50.752Z,98095.20
2022-07-29T16:27:37.588Z,98094.88
2022-07-29T16:30:27.967Z,98095.57
2022-07-29T16:33:08.065Z,98090.62
2022-07-29T16:35:43.331Z,98088.95
2022-07-29T16:43:11.273Z,98101.29
2022-07-29T16:45:46.481Z,98100.95
2022-07-29T16:48:21.767Z,98103.90
2022-07-29T16:50:59.681Z,98105.41
2022-07-29T16:53:35.170Z,98110.23
2022-07-29T16:56:11.840Z,98110.02
2022-07-29T16:58:48.263Z,98109.60
2022-07-29T17:07:47.631Z,98121.48
2022-07-29T17:18:21.479Z,98142.55
2022-07-29T17:20:52.724Z,98147.30
2022-07-29T17:23:23.967Z,98146.59
2022-07-29T17:26:03.703Z,98150.56
2022-07-29T17:28:35.258Z,98154.39
2022-07-29T17:31:06.503Z,98155.45
2022-07-29T17:33:41.422Z,98157.04
2022-07-29T17:36:28.044Z,98163.41
2022-07-29T17:39:00.554Z,98177.58
2022-07-29T17:41:32.341Z,98189.45
2022-07-29T17:44:03.589Z,98203.42
2022-07-29T17:46:35.350Z,98214.81
2022-07-29T17:49:06.863Z,98221.23
2022-07-29T17:51:37.876Z,98226.46
2022-07-29T17:54:08.974Z,98222.46
2022-07-29T17:56:39.691Z,98219.94
2022-07-29T17:59:10.826Z,98206.98
2022-07-29T18:01:41.790Z,98199.06
2022-07-29T18:04:13.072Z,98199.52
2022-07-29T18:06:43.537Z,98203.11
2022-07-29T18:09:14.043Z,98219.50
2022-07-29T18:11:45.917Z,98232.94
2022-07-29T18:14:16.316Z,98253.98
2022-07-29T18:16:46.744Z,98257.70
2022-07-29T18:19:17.189Z,98258.17
2022-07-29T18:21:54.008Z,98258.20
2022-07-29T18:24:27.666Z,98256.88
2022-07-29T18:26:58.715Z,98257.77
2022-07-29T18:29:30.356Z,98257.58
2022-07-29T18:32:01.509Z,98254.45
2022-07-29T18:34:31.945Z,98255.06
2022-07-29T18:37:02.518Z,98258.05
2022-07-29T18:39:32.829Z,98262.63
2022-07-29T18:42:03.211Z,98266.85
2022-07-29T18:44:33.677Z,98264.69
2022-07-29T18:47:14.130Z,98262.64
2022-07-29T18:49:44.608Z,98263.44
2022-07-29T18:52:15.042Z,98269.05
2022-07-29T18:54:45.365Z,98270.20
2022-07-29T18:57:54.703Z,98274.11
2022-07-29T19:00:10.653Z,98268.88
2022-07-29T19:02:43.481Z,98266.01
2022-07-29T19:05:14.321Z,98265.80
2022-07-29T19:07:44.725Z,98265.83
2022-07-29T19:10:15.310Z,98262.61
2022-07-29T19:12:45.704Z,98264.27
2022-07-29T19:15:19.973Z,98263.38
2022-07-29T19:17:51.378Z,98267.09
2022-07-29T19:20:22.172Z,98265.71
2022-07-29T19:22:52.710Z,98264.29
2022-07-29T19:25:23.397Z,98269.73
2022-07-29T19:27:54.317Z,98277.59
2022-07-29T19:30:24.971Z,98277.86
2022-07-29T19:32:55.506Z,98288.11
2022-07-29T19:35:28.432Z,98292.75
2022-07-29T19:38:00.517Z,98293.92
2022-07-29T19:40:31.802Z,98301.59
2022-07-29T19:43:49.740Z,98308.74
2022-07-29T19:45:56.088Z,98315.34
2022-07-29T19:48:26.853Z,98319.38
2022-07-29T19:50:57.739Z,98322.59
2022-07-29T19:53:28.301Z,98319.89
2022-07-29T19:56:01.105Z,98317.34
2022-07-29T19:58:32.441Z,98316.31
2022-07-29T20:01:10.452Z,98317.54
2022-07-29T20:03:42.210Z,98320.61
2022-07-29T20:06:13.269Z,98321.19
2022-07-29T20:08:45.206Z,98319.98
2022-07-29T20:11:16.191Z,98319.70
2022-07-29T20:13:47.418Z,98325.63
2022-07-29T20:16:18.895Z,98330.48
2022-07-29T20:18:50.085Z,98333.06
2022-07-29T20:21:21.952Z,98340.39
2022-07-29T20:23:52.910Z,98343.16
2022-07-29T20:26:24.151Z,98348.11
2022-07-29T20:28:55.087Z,98348.73
2022-07-29T20:31:26.250Z,98351.17
2022-07-29T20:33:57.437Z,98356.13
2022-07-29T20:36:28.411Z,98359.38
2022-07-29T20:39:01.435Z,98364.52
2022-07-29T20:41:33.961Z,98370.59
2022-07-29T20:44:05.123Z,98372.58
2022-07-29T20:46:36.021Z,98370.09
2022-07-29T20:49:07.163Z,98366.20
2022-07-29T20:51:43.465Z,98363.27
2022-07-29T20:54:15.061Z,98358.77
2022-07-29T20:56:45.824Z,98356.46
2022-07-29T20:59:17.753Z,98356.17
2022-07-29T21:01:49.060Z,98360.08
2022-07-29T21:04:21.023Z,98364.00
2022-07-29T21:06:52.215Z,98367.04
2022-07-29T21:09:24.671Z,98370.30
2022-07-29T21:11:56.939Z,98373.15
2022-07-29T21:14:47.733Z,98371.46
2022-07-29T21:17:22.764Z,98370.73
2022-07-29T21:19:55.497Z,98369.08
2022-07-29T21:22:25.785Z,98372.95
2022-07-29T21:24:58.580Z,98375.05
2022-07-29T21:27:46.724Z,98377.42
2022-07-29T21:30:18.880Z,98372.31
2022-07-29T21:32:50.497Z,98366.02
2022-07-29T21:35:52.163Z,98361.22
2022-07-29T21:38:13.085Z,98352.39
2022-07-29T21:40:55.420Z,98345.27
2022-07-29T21:43:28.478Z,98344.50
2022-07-29T21:45:59.660Z,98351.70
2022-07-29T21:48:30.706Z,98356.55
2022-07-29T21:51:01.179Z,98359.19
2022-07-29T21:53:31.604Z,98361.48
2022-07-29T21:56:01.977Z,98360.86
2022-07-29T21:58:32.364Z,98365.38
2022-07-29T22:01:02.808Z,98363.48
2022-07-29T22:03:33.125Z,98365.48
2022-07-29T22:06:03.500Z,98362.23
2022-07-29T22:08:33.916Z,98360.77
2022-07-29T22:11:04.423Z,98359.08
2022-07-29T22:13:34.771Z,98357.98
2022-07-29T22:16:06.481Z,98360.96
2022-07-29T22:18:36.895Z,98360.92
2022-07-29T22:21:07.252Z,98362.29
2022-07-29T22:23:37.558Z,98364.92
2022-07-29T22:26:07.932Z,98369.99
2022-07-29T22:28:38.769Z,98372.40
2022-07-29T22:31:11.342Z,98369.92
2022-07-29T22:33:41.683Z,98370.73
2022-07-29T22:36:12.055Z,98372.59
2022-07-29T22:38:42.350Z,98371.60
2022-07-29T22:41:14.809Z,98368.23
2022-07-29T22:43:46.149Z,98374.44
2022-07-29T22:46:16.637Z,98375.40
2022-07-29T22:48:47.162Z,98374.83
2022-07-29T22:51:17.714Z,98377.30
2022-07-29T22:53:49.228Z,98376.91
2022-07-29T22:56:20.360Z,98375.48
2022-07-29T22:58:51.205Z,98373.83
2022-07-29T23:01:37.595Z,98371.98
2022-07-29T23:04:09.509Z,98379.83
2022-07-29T23:06:41.094Z,98381.39
2022-07-29T23:09:13.116Z,98386.52
2022-07-29T23:11:44.487Z,98385.66
2022-07-29T23:14:15.348Z,98387.64
2022-07-29T23:16:47.519Z,98386.42
2022-07-29T23:19:21.170Z,98389.39
2022-07-29T23:21:54.173Z,98389.36
2022-07-29T23:24:25.033Z,98388.31
2022-07-29T23:26:57.242Z,98384.31
2022-07-29T23:29:28.293Z,98381.02
2022-07-29T23:32:00.751Z,98383.02
2022-07-29T23:34:31.329Z,98383.02
2022-07-29T23:37:02.131Z,98381.99
2022-07-29T23:39:33.783Z,98382.92
2022-07-29T23:42:05.421Z,98383.38
2022-07-29T23:44:37.569Z,98380.19
2022-07-29T23:47:09.240Z,98370.89
2022-07-29T23:49:41.361Z,98373.86
2022-07-29T23:52:14.222Z,98370.29
2022-07-29T23:54:46.569Z,98372.26
2022-07-29T23:57:18.304Z,98374.67
2022-07-29T23:59:49.364Z,98368.89
